KFXE/FXE METAR and TAF weather

Enter ICAO airport designator
Station Type Date Time Source
KFXE METAR 2018/12/15 01:53 UTC NOAA

KFXE 150153Z 14004KT 10SM CLR 24/23 A3004 RMK AO2 SLP173 T02440228


Station Type Date Time Source
KFXE Decoded METAR 2018/12/15 01:53 UTC NOAA

FORT LAUDERDALE EXECUTIVE, FL, United States (KFXE) 26-12N 080-11W 6M
Dec 14, 2018 - 08:53 PM EST / 2018.12.15 0153 UTC
Wind: from the SE (140 degrees) at 5 MPH (4 KT):0
Visibility: 10 mile(s):0
Sky conditions: clear
Temperature: 75.9 F (24.4 C)
Dew Point: 73.0 F (22.8 C)
Relative Humidity: 90%
Pressure (altimeter): 30.04 in. Hg (1017 hPa)
ob: KFXE 150153Z 14004KT 10SM CLR 24/23 A3004 RMK AO2 SLP173 T02440228
cycle: 2

Station Type Date Time Source
KFXE TAF 2018/12/14 22:30 UTC NOAA

TAF
AMD KFXE 142228Z 1422/1518 15012KT P6SM SCT030 SCT150 BKN200
FM150700 17009KT P6SM VCSH SCT020 BKN040 OVC100 PROB30 1509/1513 TSRA BKN025 BKN035CB
FM151600 20012G22KT P6SM VCSH SCT020 BKN035 OVC050


Example: see airport list